• Join FlightAware (Why Join?)
  • Login
  • US Flag 
07:02AM EST


 

Airport Tracker/Info


-or-


 

Live Flight TrackerFlight Track Log ✈ BJS542 ✈ 30-Jun-2013 ✈ KLAS - KSBD

Flight Track Log - Related Links

Times and Time Zones

All times are in EDT time to prevent confusion due to time zone crossing. See the BJS542 flight status page for this flight to view local times or setup timezone preferences in your user account.

Time Position Orientation Groundspeed Altitude Reporting Facility
EDT Latitude Longitude Course Direction KTS MPH feet Rate Location/Type
10:21AM 36.0772 -115.1039 161° South 232 267 3,600  Level Los Angeles Center
10:22AM 36.0764 -115.0111 91° East 265 305 6,700 2,940 Climbing Los Angeles Center
10:24AM 35.9858 -114.9825 166° South 283 326 11,100 2,640 Climbing Los Angeles Center
10:25AM 35.9233 -115.0428 218° Southwest 277 319 13,200 2,460 Climbing Los Angeles Center
10:26AM 35.8494 -115.1189 220° Southwest 326 375 16,200 2,820 Climbing Los Angeles Center
10:27AM 35.7680 -115.3267 161° South  Level FlightAware Approximate
10:27AM 35.7764 -115.1925 219° Southwest 336 387 19,000  Level Los Angeles Center
10:28AM 35.6894 -115.2814 220° Southwest 396 456 19,000 240 Level Los Angeles Center
10:29AM 35.6083 -115.3861 226° Southwest 415 478 19,500 1,320 Climbing Los Angeles Center
10:30AM 35.5289 -115.4958 228° Southwest 425 489 21,800 1,200 Climbing Los Angeles Center
10:31AM 35.4342 -115.6208 227° Southwest 436 502 22,000 60 Climbing Los Angeles Center
10:32AM 35.3528 -115.7294 227° Southwest 436 502 22,000  Level Los Angeles Center
10:33AM 35.2739 -115.8339 227° Southwest 424 488 22,000  Level Los Angeles Center
10:34AM 35.1956 -115.9389 228° Southwest 418 481 22,000  Level Los Angeles Center
10:35AM 35.1161 -116.0439 227° Southwest 421 484 22,000  Level Los Angeles Center
10:36AM 35.0347 -116.1506 227° Southwest 425 489 22,000  Level Los Angeles Center
10:37AM 34.9544 -116.2572 227° Southwest 427 491 22,000  Level Los Angeles Center
10:38AM 34.8719 -116.3647 227° Southwest 431 496 22,000  Level Los Angeles Center
10:39AM 34.7722 -116.4925 226° Southwest 433 498 22,000  Level Los Angeles Center
10:40AM 34.6872 -116.5961 225° Southwest 431 496 22,000  Level Los Angeles Center
10:41AM 34.6017 -116.6997 225° Southwest 432 497 22,000 -240 Level Los Angeles Center
10:42AM 34.5164 -116.8042 225° Southwest 434 499 21,600 -1,860 Descending Los Angeles Center
10:43AM 34.4342 -116.9047 225° Southwest 423 487 18,300 -3,240 Descending Los Angeles Center
10:44AM 34.3606 -116.9975 226° Southwest 382 440 15,000 -3,060 Descending Los Angeles Center
10:45AM 34.2911 -117.0803 225° Southwest 349 402 12,100 -2,460 Descending Los Angeles Center
10:46AM 34.2333 -117.1481 224° Southwest 295 339 10,000 -1,440 Descending Los Angeles Center
10:47AM 34.1814 -117.2106 225° Southwest 222 255 9,200 -2,100 Descending Los Angeles Center
10:48AM 34.1431 -117.2517 222° Southwest 184 212 5,800 -3,180 Descending Los Angeles Center
10:49AM 34.1000 -117.3000 223° Southwest 183 211 2,700 -2,220 Descending Southern California TRACON
10:50AM 34.0833 -117.2667 121° Southeast 146 168 1,400 -1,320 Descending Southern California TRACON